createdAt,value
2023-01-19T00:00:53.755Z,-0.53
2023-01-19T00:03:21.549Z,-0.51
2023-01-19T00:05:48.481Z,-0.52
2023-01-19T00:08:15.577Z,-0.52
2023-01-19T00:10:44.749Z,-0.54
2023-01-19T00:13:14.575Z,-0.54
2023-01-19T00:15:41.433Z,-0.55
2023-01-19T00:18:10.599Z,-0.57
2023-01-19T00:20:38.729Z,-0.58
2023-01-19T00:23:08.169Z,-0.56
2023-01-19T00:25:35.456Z,-0.56
2023-01-19T00:28:02.308Z,-0.53
2023-01-19T00:30:29.476Z,-0.48
2023-01-19T00:32:56.161Z,-0.43
2023-01-19T00:35:23.197Z,-0.36
2023-01-19T00:37:50.389Z,-0.30
2023-01-19T00:40:17.654Z,-0.24
2023-01-19T00:42:44.644Z,-0.21
2023-01-19T00:45:16.656Z,-0.16
2023-01-19T00:47:43.649Z,-0.12
2023-01-19T00:50:12.920Z,-0.06
2023-01-19T00:52:41.110Z,0.01
2023-01-19T00:55:09.613Z,0.06
2023-01-19T00:57:36.589Z,0.10
2023-01-19T01:00:06.557Z,0.14
2023-01-19T01:02:33.899Z,0.17
2023-01-19T01:05:02.837Z,0.21
2023-01-19T01:07:31.084Z,0.24
2023-01-19T01:09:57.869Z,0.27
2023-01-19T01:12:25.302Z,0.30
2023-01-19T01:14:52.242Z,0.33
2023-01-19T01:17:24.756Z,0.32
2023-01-19T01:19:52.281Z,0.34
2023-01-19T01:22:19.592Z,0.35
2023-01-19T01:24:46.477Z,0.36
2023-01-19T01:27:13.336Z,0.36
2023-01-19T01:29:41.226Z,0.36
2023-01-19T01:32:08.443Z,0.36
2023-01-19T01:34:35.936Z,0.33
2023-01-19T01:37:02.978Z,0.34
2023-01-19T01:39:29.781Z,0.33
2023-01-19T01:41:57.560Z,0.31
2023-01-19T01:44:53.616Z,0.29
2023-01-19T01:47:23.706Z,0.28
2023-01-19T01:50:03.117Z,0.26
2023-01-19T01:52:34.312Z,0.25
2023-01-19T01:55:07.089Z,0.23
2023-01-19T01:57:41.319Z,0.23
2023-01-19T02:00:08.981Z,0.20
2023-01-19T02:02:52.354Z,0.20
2023-01-19T02:05:26.890Z,0.19
2023-01-19T02:08:19.243Z,0.18
2023-01-19T02:11:05.512Z,0.20
2023-01-19T02:13:36.352Z,0.21
2023-01-19T02:16:08.938Z,0.19
2023-01-19T02:18:37.588Z,0.19
2023-01-19T02:21:13.547Z,0.19
2023-01-19T02:23:58.308Z,0.20
2023-01-19T02:26:31.462Z,0.21
2023-01-19T02:29:05.509Z,0.21
2023-01-19T02:31:34.378Z,0.23
2023-01-19T02:34:03.038Z,0.23
2023-01-19T02:36:54.403Z,0.24
2023-01-19T02:39:29.168Z,0.25
2023-01-19T02:42:03.234Z,0.27
2023-01-19T02:44:31.511Z,0.28
2023-01-19T02:46:58.079Z,0.32
2023-01-19T02:49:28.971Z,0.32
2023-01-19T02:51:56.193Z,0.36
2023-01-19T02:54:31.778Z,0.37
2023-01-19T02:57:24.807Z,0.37
2023-01-19T03:00:17.745Z,0.36
2023-01-19T03:03:19.887Z,0.37
2023-01-19T03:05:54.143Z,0.39
2023-01-19T03:08:34.297Z,0.39
2023-01-19T03:11:10.311Z,0.39
2023-01-19T03:14:09.000Z,0.38
2023-01-19T03:16:38.802Z,0.36
2023-01-19T03:19:12.413Z,0.34
2023-01-19T03:21:42.743Z,0.32
2023-01-19T03:24:12.305Z,0.29
2023-01-19T03:26:47.352Z,0.28
2023-01-19T03:29:16.358Z,0.30
2023-01-19T03:31:46.356Z,0.31
2023-01-19T03:34:16.146Z,0.33
2023-01-19T03:36:46.562Z,0.36
2023-01-19T03:39:18.047Z,0.40
2023-01-19T03:41:48.772Z,0.42
2023-01-19T03:44:16.696Z,0.43
2023-01-19T03:46:45.827Z,0.45
2023-01-19T03:49:13.143Z,0.47
2023-01-19T03:51:40.286Z,0.47
2023-01-19T03:54:07.617Z,0.48
2023-01-19T03:56:34.927Z,0.50
2023-01-19T03:59:01.780Z,0.53
2023-01-19T04:01:28.842Z,0.56
2023-01-19T04:03:55.888Z,0.60
2023-01-19T04:06:23.149Z,0.66
2023-01-19T04:08:51.905Z,0.69
2023-01-19T04:11:18.814Z,0.72
2023-01-19T04:13:45.780Z,0.74
2023-01-19T04:16:12.796Z,0.76
2023-01-19T04:18:42.193Z,0.76
2023-01-19T04:21:09.254Z,0.77
2023-01-19T04:23:36.567Z,0.79
2023-01-19T04:26:06.440Z,0.80
2023-01-19T04:28:39.516Z,0.82
2023-01-19T04:31:06.932Z,0.85
2023-01-19T04:33:34.410Z,0.89
2023-01-19T04:36:01.715Z,0.91
2023-01-19T04:38:28.926Z,0.93
2023-01-19T04:40:56.199Z,0.96
2023-01-19T04:43:23.957Z,0.98
2023-01-19T04:45:51.485Z,1.03
2023-01-19T04:48:18.863Z,1.03
2023-01-19T04:50:48.633Z,1.05
2023-01-19T04:53:16.534Z,1.06
2023-01-19T04:55:43.522Z,1.06
2023-01-19T04:58:10.436Z,1.10
2023-01-19T05:00:39.421Z,1.10
2023-01-19T05:03:06.309Z,1.11
2023-01-19T05:05:36.166Z,1.13
2023-01-19T05:08:03.272Z,1.14
2023-01-19T05:10:30.643Z,1.16
2023-01-19T05:12:58.192Z,1.18
2023-01-19T05:15:25.752Z,1.19
2023-01-19T05:17:57.975Z,1.21
2023-01-19T05:20:25.990Z,1.23
2023-01-19T05:22:53.882Z,1.24
2023-01-19T05:25:21.107Z,1.26
2023-01-19T05:27:48.035Z,1.25
2023-01-19T05:30:15.362Z,1.28
2023-01-19T05:32:42.447Z,1.29
2023-01-19T05:35:10.013Z,1.31
2023-01-19T05:37:36.845Z,1.32
2023-01-19T05:40:07.441Z,1.33
2023-01-19T05:42:34.361Z,1.34
2023-01-19T05:45:01.601Z,1.34
2023-01-19T05:47:31.622Z,1.36
2023-01-19T05:49:58.655Z,1.36
2023-01-19T05:52:26.025Z,1.36
2023-01-19T05:54:55.044Z,1.36
2023-01-19T05:57:24.975Z,1.36
2023-01-19T05:59:52.026Z,1.39
2023-01-19T06:02:19.236Z,1.34
2023-01-19T06:04:46.289Z,1.37
2023-01-19T06:07:13.480Z,1.35
2023-01-19T06:09:40.292Z,1.35
2023-01-19T06:12:07.352Z,1.34
2023-01-19T06:14:41.550Z,1.35
2023-01-19T06:17:08.725Z,1.35
2023-01-19T06:19:35.833Z,1.34
2023-01-19T06:22:02.864Z,1.36
2023-01-19T06:24:30.261Z,1.34
2023-01-19T06:26:57.234Z,1.37
2023-01-19T06:29:25.410Z,1.38
2023-01-19T06:31:54.844Z,1.39
2023-01-19T06:34:22.271Z,1.40
2023-01-19T06:36:50.674Z,1.42
2023-01-19T06:39:17.958Z,1.43
2023-01-19T06:41:45.137Z,1.43
2023-01-19T06:44:12.051Z,1.45
2023-01-19T06:46:39.222Z,1.47
2023-01-19T06:49:06.128Z,1.45
2023-01-19T06:51:32.909Z,1.44
2023-01-19T06:53:59.787Z,1.45
2023-01-19T06:56:26.481Z,1.44
2023-01-19T06:58:54.324Z,1.47
2023-01-19T07:01:21.772Z,1.49
2023-01-19T07:03:48.540Z,1.49
2023-01-19T07:06:15.365Z,1.49
2023-01-19T07:08:42.381Z,1.52
2023-01-19T07:11:24.733Z,1.53
2023-01-19T07:13:58.384Z,1.55
2023-01-19T07:16:25.462Z,1.58
2023-01-19T07:18:53.035Z,1.58
2023-01-19T07:21:20.519Z,1.59
2023-01-19T07:23:53.887Z,1.61
2023-01-19T07:26:22.223Z,1.65
2023-01-19T07:28:52.378Z,1.65
2023-01-19T07:31:20.055Z,1.66
2023-01-19T07:33:47.207Z,1.67
2023-01-19T07:36:14.713Z,1.68
2023-01-19T07:38:41.958Z,1.70
2023-01-19T07:41:10.093Z,1.71
2023-01-19T07:43:37.136Z,1.72
2023-01-19T07:46:06.331Z,1.75
2023-01-19T07:48:33.619Z,1.78
2023-01-19T07:51:01.844Z,1.79
2023-01-19T07:53:28.801Z,1.80
2023-01-19T07:55:59.305Z,1.83
2023-01-19T07:58:26.666Z,1.87
2023-01-19T08:00:53.734Z,1.90
2023-01-19T08:03:20.776Z,1.91
2023-01-19T08:05:52.176Z,1.95
2023-01-19T08:08:19.491Z,2.00
2023-01-19T08:10:49.856Z,2.04
2023-01-19T08:13:16.698Z,2.05
2023-01-19T08:15:44.038Z,2.08
2023-01-19T08:18:11.757Z,2.12
2023-01-19T08:20:38.751Z,2.14
2023-01-19T08:23:05.662Z,2.16
2023-01-19T08:25:34.232Z,2.18
2023-01-19T08:28:01.615Z,2.20
2023-01-19T08:30:28.410Z,2.22
2023-01-19T08:32:58.088Z,2.23
2023-01-19T08:35:25.378Z,2.22
2023-01-19T08:37:52.422Z,2.23
2023-01-19T08:40:19.712Z,2.25
2023-01-19T08:42:46.514Z,2.22
2023-01-19T08:45:13.538Z,2.21
2023-01-19T08:47:40.501Z,2.20
2023-01-19T08:50:07.888Z,2.20
2023-01-19T08:52:34.583Z,2.19
2023-01-19T08:55:04.889Z,2.23
2023-01-19T08:57:31.848Z,2.26
2023-01-19T09:00:00.953Z,2.31
2023-01-19T09:02:28.305Z,2.35
2023-01-19T09:04:55.393Z,2.38
2023-01-19T09:07:22.125Z,2.38
2023-01-19T09:09:48.754Z,2.37
2023-01-19T09:12:16.556Z,2.40
2023-01-19T09:14:43.621Z,2.41
2023-01-19T09:17:10.503Z,2.41
2023-01-19T09:19:37.119Z,2.45
2023-01-19T09:22:04.421Z,2.41
2023-01-19T09:24:31.210Z,2.39
2023-01-19T09:26:58.259Z,2.39
2023-01-19T09:29:25.702Z,2.35
2023-01-19T09:31:53.030Z,2.40
2023-01-19T09:34:21.015Z,2.42
2023-01-19T09:36:48.225Z,2.38
2023-01-19T09:39:15.073Z,2.38
2023-01-19T09:41:47.303Z,2.32
2023-01-19T09:44:32.131Z,2.30
2023-01-19T09:47:00.780Z,2.30
2023-01-19T09:49:41.624Z,2.20
2023-01-19T09:52:13.330Z,2.16
2023-01-19T09:54:52.988Z,2.13
2023-01-19T09:57:26.885Z,2.12
2023-01-19T09:59:59.394Z,2.10
2023-01-19T10:02:32.016Z,2.09
2023-01-19T10:05:00.273Z,2.06
2023-01-19T10:07:36.603Z,2.04
2023-01-19T10:10:13.129Z,2.03
2023-01-19T10:12:56.121Z,2.01
2023-01-19T10:15:49.197Z,1.95
2023-01-19T10:18:39.910Z,1.92
2023-01-19T10:21:14.811Z,1.91
2023-01-19T10:23:57.241Z,1.89
2023-01-19T10:26:33.836Z,1.87
2023-01-19T10:29:22.129Z,1.86
2023-01-19T10:31:52.136Z,1.84
2023-01-19T10:34:23.195Z,1.86
2023-01-19T10:36:57.863Z,1.83
2023-01-19T10:39:25.109Z,1.74
2023-01-19T10:41:53.454Z,1.59
2023-01-19T10:44:36.799Z,1.53
2023-01-19T10:47:06.337Z,1.48
2023-01-19T10:49:39.072Z,1.44
2023-01-19T10:52:08.070Z,1.41
2023-01-19T10:54:37.321Z,1.42
2023-01-19T10:57:07.599Z,1.46
2023-01-19T10:59:49.557Z,1.48
2023-01-19T11:02:27.857Z,1.50
2023-01-19T11:05:21.667Z,1.56
2023-01-19T11:07:48.894Z,1.64
2023-01-19T11:10:15.874Z,1.71
2023-01-19T11:12:45.916Z,1.72
2023-01-19T11:15:21.457Z,1.77
2023-01-19T11:17:48.957Z,1.85
2023-01-19T11:20:20.307Z,1.89
2023-01-19T11:22:48.826Z,1.95
2023-01-19T11:25:32.061Z,2.00
2023-01-19T11:27:59.196Z,2.04
2023-01-19T11:30:27.076Z,2.11
2023-01-19T11:32:54.479Z,2.16
2023-01-19T11:35:41.607Z,2.22
2023-01-19T11:38:23.769Z,2.27
2023-01-19T11:41:04.134Z,2.33
2023-01-19T11:43:47.417Z,2.38
2023-01-19T11:46:16.414Z,2.43
2023-01-19T11:48:57.474Z,2.43
2023-01-19T11:51:30.545Z,2.42
2023-01-19T11:53:57.433Z,2.46
2023-01-19T11:56:28.945Z,2.47
2023-01-19T11:58:56.371Z,2.48
2023-01-19T12:01:24.635Z,2.44
2023-01-19T12:04:14.319Z,2.39
2023-01-19T12:06:44.777Z,2.35
2023-01-19T12:09:23.457Z,2.32
2023-01-19T12:11:57.448Z,2.29
2023-01-19T12:14:31.501Z,2.23
2023-01-19T12:17:03.250Z,2.22
2023-01-19T12:19:42.255Z,2.19
2023-01-19T12:22:15.218Z,2.10
2023-01-19T12:24:58.660Z,2.02
2023-01-19T12:27:40.777Z,1.96
2023-01-19T12:30:21.075Z,1.89
2023-01-19T12:32:48.080Z,1.80
2023-01-19T12:36:00.766Z,1.71
2023-01-19T12:38:56.670Z,1.60
2023-01-19T12:41:41.004Z,1.46
2023-01-19T12:44:10.983Z,1.37
2023-01-19T12:46:42.705Z,1.30
2023-01-19T12:49:26.977Z,1.24
2023-01-19T12:52:28.112Z,1.17
2023-01-19T12:55:14.130Z,1.15
2023-01-19T12:57:47.097Z,1.15
2023-01-19T13:00:23.524Z,1.12
2023-01-19T13:03:00.146Z,1.10
2023-01-19T13:05:33.607Z,1.10
2023-01-19T13:08:03.417Z,1.10
2023-01-19T13:11:02.163Z,1.10
2023-01-19T13:13:31.220Z,1.12
2023-01-19T13:16:27.685Z,1.15
2023-01-19T13:19:05.510Z,1.19
2023-01-19T13:21:44.841Z,1.24
2023-01-19T13:24:15.097Z,1.29
2023-01-19T13:26:51.080Z,1.31
2023-01-19T13:29:35.610Z,1.37
2023-01-19T13:32:06.518Z,1.43
2023-01-19T13:34:42.553Z,1.48
2023-01-19T13:37:18.478Z,1.53
2023-01-19T13:39:49.895Z,1.56
2023-01-19T13:42:36.985Z,1.59
2023-01-19T13:45:16.104Z,1.61
2023-01-19T13:47:46.811Z,1.63
2023-01-19T13:50:21.921Z,1.64
2023-01-19T13:52:53.902Z,1.69
2023-01-19T13:55:21.911Z,1.74
2023-01-19T13:57:50.369Z,1.79
2023-01-19T14:00:18.940Z,1.84
2023-01-19T14:02:54.269Z,1.89
2023-01-19T14:05:24.500Z,1.93
2023-01-19T14:08:14.926Z,1.98
2023-01-19T14:10:53.577Z,2.01
2023-01-19T14:13:27.217Z,2.07
2023-01-19T14:15:59.478Z,2.14
2023-01-19T14:18:32.598Z,2.20
2023-01-19T14:21:08.863Z,2.30
2023-01-19T14:23:35.437Z,2.37
2023-01-19T14:26:02.157Z,2.44
2023-01-19T14:28:39.416Z,2.50
2023-01-19T14:31:20.710Z,2.56
2023-01-19T14:33:51.353Z,2.60
2023-01-19T14:36:21.562Z,2.66
2023-01-19T14:38:50.171Z,2.72
2023-01-19T14:41:32.644Z,2.78
2023-01-19T14:44:00.485Z,2.79
2023-01-19T14:46:27.306Z,2.79
2023-01-19T14:49:01.151Z,2.82
2023-01-19T14:51:29.511Z,2.82
2023-01-19T14:53:59.364Z,2.81
2023-01-19T14:56:31.928Z,2.79
2023-01-19T14:59:00.801Z,2.79
2023-01-19T15:01:29.473Z,2.77
2023-01-19T15:03:59.355Z,2.75
2023-01-19T15:06:26.607Z,2.74
2023-01-19T15:08:53.859Z,2.72
2023-01-19T15:11:33.015Z,2.70
2023-01-19T15:14:00.344Z,2.78
2023-01-19T15:16:29.093Z,2.88
2023-01-19T15:18:56.203Z,3.06
2023-01-19T15:21:26.635Z,3.21
2023-01-19T15:23:54.765Z,3.27
2023-01-19T15:26:26.321Z,3.16
2023-01-19T15:28:53.726Z,3.03
2023-01-19T15:31:23.521Z,2.86
2023-01-19T15:33:50.615Z,2.71
2023-01-19T15:36:22.286Z,2.57
2023-01-19T15:38:52.210Z,2.43
2023-01-19T15:41:29.943Z,2.30
2023-01-19T15:43:57.107Z,2.18
2023-01-19T15:46:25.754Z,2.07
2023-01-19T15:48:54.145Z,1.96
2023-01-19T15:51:23.364Z,1.87
2023-01-19T15:53:50.227Z,1.80
2023-01-19T15:56:26.343Z,1.72
2023-01-19T15:58:53.843Z,1.66
2023-01-19T16:01:23.328Z,1.59
2023-01-19T16:03:51.254Z,1.56
2023-01-19T16:06:18.452Z,1.52
2023-01-19T16:08:45.650Z,1.50
2023-01-19T16:11:15.108Z,1.47
2023-01-19T16:13:46.155Z,1.44
2023-01-19T16:16:16.659Z,1.41
2023-01-19T16:18:43.755Z,1.39
2023-01-19T16:21:10.764Z,1.36
2023-01-19T16:23:38.011Z,1.34
2023-01-19T16:26:22.936Z,1.31
2023-01-19T16:28:49.728Z,1.29
2023-01-19T16:31:16.671Z,1.26
2023-01-19T16:33:45.188Z,1.23
2023-01-19T16:36:31.667Z,1.21
2023-01-19T16:39:03.797Z,1.19
2023-01-19T16:41:31.156Z,1.18
2023-01-19T16:43:58.417Z,1.19
2023-01-19T16:46:35.154Z,1.19
2023-01-19T16:49:22.979Z,1.16
2023-01-19T16:51:50.754Z,1.14
2023-01-19T16:54:20.791Z,1.12
2023-01-19T16:56:48.589Z,1.09
2023-01-19T16:59:17.417Z,1.07
2023-01-19T17:01:45.506Z,1.03
2023-01-19T17:04:13.435Z,0.99
2023-01-19T17:06:40.601Z,0.95
2023-01-19T17:09:09.401Z,0.92
2023-01-19T17:11:37.075Z,0.88
2023-01-19T17:14:07.222Z,0.86
2023-01-19T17:16:35.265Z,0.83
2023-01-19T17:19:04.531Z,0.81
2023-01-19T17:21:35.105Z,0.79
2023-01-19T17:24:01.954Z,0.78
2023-01-19T17:26:30.997Z,0.77
2023-01-19T17:29:02.904Z,0.77
2023-01-19T17:31:31.999Z,0.76
2023-01-19T17:33:59.986Z,0.74
2023-01-19T17:36:28.939Z,0.72
2023-01-19T17:38:58.106Z,0.72
2023-01-19T17:41:27.405Z,0.71
2023-01-19T17:43:55.031Z,0.70
2023-01-19T17:46:24.342Z,0.68
2023-01-19T17:48:58.733Z,0.66
2023-01-19T17:51:26.347Z,0.65
2023-01-19T17:53:53.575Z,0.63
2023-01-19T17:56:22.476Z,0.62
2023-01-19T17:58:49.946Z,0.58
2023-01-19T18:01:19.392Z,0.54
2023-01-19T18:03:46.500Z,0.49
2023-01-19T18:06:14.091Z,0.44
2023-01-19T18:08:46.249Z,0.37
2023-01-19T18:11:13.965Z,0.32
2023-01-19T18:13:44.006Z,0.27
2023-01-19T18:16:13.912Z,0.24
2023-01-19T18:18:41.387Z,0.21
2023-01-19T18:21:10.256Z,0.21
2023-01-19T18:23:37.328Z,0.21
2023-01-19T18:26:06.827Z,0.21
2023-01-19T18:28:33.903Z,0.20
2023-01-19T18:31:01.191Z,0.21
2023-01-19T18:33:28.797Z,0.20
2023-01-19T18:35:55.523Z,0.19
2023-01-19T18:38:22.414Z,0.19
2023-01-19T18:40:48.922Z,0.18
2023-01-19T18:43:16.400Z,0.18
2023-01-19T18:45:46.980Z,0.18
2023-01-19T18:48:13.890Z,0.18
2023-01-19T18:50:40.564Z,0.19
2023-01-19T18:53:07.366Z,0.19
2023-01-19T18:55:36.291Z,0.20
2023-01-19T18:58:05.074Z,0.21
2023-01-19T19:00:32.003Z,0.23
2023-01-19T19:02:58.649Z,0.24
2023-01-19T19:05:25.619Z,0.26
2023-01-19T19:07:52.487Z,0.27
2023-01-19T19:10:19.309Z,0.28
2023-01-19T19:12:45.917Z,0.31
2023-01-19T19:15:13.916Z,0.33
2023-01-19T19:17:40.536Z,0.35
2023-01-19T19:20:07.389Z,0.39
2023-01-19T19:22:34.173Z,0.41
2023-01-19T19:25:01.031Z,0.45
2023-01-19T19:27:27.973Z,0.48
2023-01-19T19:29:54.421Z,0.50
2023-01-19T19:32:21.545Z,0.52
2023-01-19T19:34:56.559Z,0.54
2023-01-19T19:37:23.852Z,0.55
2023-01-19T19:39:50.904Z,0.55
2023-01-19T19:42:18.009Z,0.55
2023-01-19T19:44:44.998Z,0.53
2023-01-19T19:47:11.979Z,0.51
2023-01-19T19:49:39.293Z,0.49
2023-01-19T19:52:06.319Z,0.46
2023-01-19T19:54:33.285Z,0.44
2023-01-19T19:57:00.615Z,0.42
2023-01-19T19:59:27.612Z,0.39
2023-01-19T20:01:54.680Z,0.35
2023-01-19T20:04:22.816Z,0.34
2023-01-19T20:06:49.917Z,0.32
2023-01-19T20:09:17.197Z,0.31
2023-01-19T20:11:46.709Z,0.31
2023-01-19T20:14:14.615Z,0.29
2023-01-19T20:16:41.552Z,0.28
2023-01-19T20:19:08.414Z,0.27
2023-01-19T20:21:37.734Z,0.27
2023-01-19T20:24:08.110Z,0.26
2023-01-19T20:26:39.752Z,0.27
2023-01-19T20:29:07.002Z,0.28
2023-01-19T20:31:38.143Z,0.30
2023-01-19T20:34:07.310Z,0.34
2023-01-19T20:36:34.967Z,0.37
2023-01-19T20:39:08.359Z,0.37
2023-01-19T20:41:38.847Z,0.39
2023-01-19T20:44:05.890Z,0.40
2023-01-19T20:46:32.577Z,0.41
2023-01-19T20:48:59.478Z,0.41
2023-01-19T20:51:27.025Z,0.42
2023-01-19T20:53:53.943Z,0.39
2023-01-19T20:56:21.085Z,0.38
2023-01-19T20:58:47.880Z,0.38
2023-01-19T21:01:18.759Z,0.36
2023-01-19T21:03:45.761Z,0.35
2023-01-19T21:06:13.717Z,0.35
2023-01-19T21:08:41.151Z,0.34
2023-01-19T21:11:09.319Z,0.32
2023-01-19T21:13:37.069Z,0.33
2023-01-19T21:16:04.749Z,0.33
2023-01-19T21:18:31.666Z,0.31
2023-01-19T21:20:58.797Z,0.31
2023-01-19T21:23:26.795Z,0.32
2023-01-19T21:25:57.740Z,0.32
2023-01-19T21:28:25.709Z,0.32
2023-01-19T21:30:53.726Z,0.34
2023-01-19T21:33:21.308Z,0.33
2023-01-19T21:35:56.146Z,0.33
2023-01-19T21:38:24.347Z,0.31
2023-01-19T21:40:51.589Z,0.29
2023-01-19T21:43:20.095Z,0.27
2023-01-19T21:45:48.394Z,0.27
2023-01-19T21:48:16.158Z,0.27
2023-01-19T21:50:43.831Z,0.27
2023-01-19T21:53:11.485Z,0.27
2023-01-19T21:55:42.789Z,0.26
2023-01-19T21:58:09.501Z,0.25
2023-01-19T22:00:36.353Z,0.23
2023-01-19T22:03:04.659Z,0.22
2023-01-19T22:05:36.723Z,0.20
2023-01-19T22:08:05.089Z,0.18
2023-01-19T22:10:32.357Z,0.17
2023-01-19T22:12:59.329Z,0.15
2023-01-19T22:15:26.570Z,0.15
2023-01-19T22:17:53.479Z,0.15
2023-01-19T22:20:20.140Z,0.14
2023-01-19T22:22:46.606Z,0.12
2023-01-19T22:25:15.303Z,0.12
2023-01-19T22:27:42.119Z,0.10
2023-01-19T22:30:09.457Z,0.08
2023-01-19T22:32:36.775Z,0.06
2023-01-19T22:35:03.937Z,0.04
2023-01-19T22:37:36.287Z,0.04
2023-01-19T22:40:04.665Z,0.02
2023-01-19T22:42:31.601Z,0.01
2023-01-19T22:44:58.427Z,0.01
2023-01-19T22:47:27.953Z,0.01
2023-01-19T22:49:57.512Z,-0.00
2023-01-19T22:52:27.336Z,-0.01
2023-01-19T22:54:57.553Z,-0.02
2023-01-19T22:57:33.571Z,-0.03
2023-01-19T23:00:07.144Z,-0.04
2023-01-19T23:02:34.140Z,-0.05
2023-01-19T23:05:01.042Z,-0.07
2023-01-19T23:07:28.115Z,-0.10
2023-01-19T23:09:54.692Z,-0.13
2023-01-19T23:12:21.655Z,-0.15
2023-01-19T23:14:48.538Z,-0.18
2023-01-19T23:17:15.204Z,-0.23
2023-01-19T23:19:42.426Z,-0.24
2023-01-19T23:22:09.271Z,-0.25
2023-01-19T23:24:36.140Z,-0.25
2023-01-19T23:27:02.948Z,-0.26
2023-01-19T23:29:30.003Z,-0.25
2023-01-19T23:31:56.942Z,-0.25
2023-01-19T23:34:23.932Z,-0.26
2023-01-19T23:36:51.132Z,-0.24
2023-01-19T23:39:21.898Z,-0.26
2023-01-19T23:41:49.448Z,-0.26
2023-01-19T23:44:17.159Z,-0.28
2023-01-19T23:46:44.456Z,-0.29
2023-01-19T23:49:12.105Z,-0.31
2023-01-19T23:51:39.410Z,-0.32
2023-01-19T23:54:06.301Z,-0.33
2023-01-19T23:56:36.063Z,-0.34
2023-01-19T23:59:08.668Z,-0.34
